createdAt,value
2023-05-09T00:00:42.917Z,10.25
2023-05-09T00:03:09.401Z,10.48
2023-05-09T00:05:35.984Z,10.57
2023-05-09T00:08:02.679Z,10.57
2023-05-09T00:10:29.277Z,11.00
2023-05-09T00:12:56.999Z,11.25
2023-05-09T00:15:24.146Z,10.02
2023-05-09T00:17:51.596Z,10.50
2023-05-09T00:20:18.376Z,10.52
2023-05-09T00:22:44.938Z,10.80
2023-05-09T00:25:11.792Z,10.35
2023-05-09T00:27:38.603Z,10.35
2023-05-09T00:30:05.923Z,11.48
2023-05-09T00:32:33.227Z,10.65
2023-05-09T00:34:59.850Z,11.20
2023-05-09T00:37:26.837Z,10.57
2023-05-09T00:39:53.413Z,10.48
2023-05-09T00:42:19.940Z,10.60
2023-05-09T00:44:46.576Z,10.60
2023-05-09T00:47:13.053Z,10.63
2023-05-09T00:49:39.712Z,11.25
2023-05-09T00:52:06.366Z,10.30
2023-05-09T00:54:33.155Z,10.35
2023-05-09T00:57:00.470Z,10.82
2023-05-09T00:59:27.435Z,10.50
2023-05-09T01:01:53.959Z,9.98
2023-05-09T01:04:20.600Z,10.52
2023-05-09T01:07:06.170Z,10.13
2023-05-09T01:09:38.315Z,9.68
2023-05-09T01:12:13.714Z,9.07
2023-05-09T01:14:46.994Z,10.43
2023-05-09T01:17:25.279Z,11.60
2023-05-09T01:19:51.849Z,11.48
2023-05-09T01:22:19.604Z,12.07
2023-05-09T01:25:00.236Z,11.52
2023-05-09T01:27:35.955Z,11.48
2023-05-09T01:30:03.637Z,11.48
2023-05-09T01:32:32.105Z,11.77
2023-05-09T01:35:00.693Z,12.43
2023-05-09T01:37:31.499Z,11.05
2023-05-09T01:40:06.096Z,11.30
2023-05-09T01:42:38.372Z,10.63
2023-05-09T01:45:05.489Z,11.65
2023-05-09T01:47:32.297Z,11.20
2023-05-09T01:50:01.343Z,11.20
2023-05-09T01:52:29.424Z,10.75
2023-05-09T01:54:56.445Z,10.23
2023-05-09T01:57:23.567Z,11.10
2023-05-09T01:59:51.187Z,10.52
2023-05-09T02:02:17.943Z,10.57
2023-05-09T02:04:45.293Z,10.55
2023-05-09T02:07:12.732Z,11.07
2023-05-09T02:09:39.385Z,10.05
2023-05-09T02:12:06.011Z,10.23
2023-05-09T02:14:32.806Z,9.77
2023-05-09T02:17:06.369Z,9.18
2023-05-09T02:19:34.483Z,9.32
2023-05-09T02:22:01.329Z,9.73
2023-05-09T02:24:27.965Z,9.57
2023-05-09T02:26:55.919Z,9.30
2023-05-09T02:29:25.477Z,9.48
2023-05-09T02:31:53.166Z,10.27
2023-05-09T02:34:20.027Z,10.07
2023-05-09T02:36:46.697Z,9.20
2023-05-09T02:39:13.759Z,9.48
2023-05-09T02:41:40.442Z,10.00
2023-05-09T02:44:07.075Z,9.25
2023-05-09T02:46:33.841Z,10.13
2023-05-09T02:49:00.521Z,9.50
2023-05-09T02:51:28.383Z,9.82
2023-05-09T02:53:54.937Z,10.77
2023-05-09T02:56:22.199Z,10.07
2023-05-09T02:58:51.525Z,10.00
2023-05-09T03:01:18.538Z,9.15
2023-05-09T03:03:46.169Z,9.93
2023-05-09T03:06:14.242Z,9.50
2023-05-09T03:08:40.903Z,9.70
2023-05-09T03:11:08.316Z,9.48
2023-05-09T03:13:35.522Z,9.68
2023-05-09T03:16:02.484Z,9.30
2023-05-09T03:18:29.103Z,9.70
2023-05-09T03:20:55.741Z,9.50
2023-05-09T03:23:22.671Z,10.00
2023-05-09T03:25:49.164Z,9.27
2023-05-09T03:28:16.278Z,9.73
2023-05-09T03:30:43.331Z,9.25
2023-05-09T03:33:13.070Z,9.77
2023-05-09T03:35:39.662Z,9.73
2023-05-09T03:38:07.285Z,9.68
2023-05-09T03:40:33.795Z,9.85
2023-05-09T03:43:07.215Z,9.40
2023-05-09T03:45:35.889Z,11.38
2023-05-09T03:48:05.313Z,10.35
2023-05-09T03:50:32.014Z,10.82
2023-05-09T03:52:59.091Z,10.40
2023-05-09T03:55:25.918Z,10.50
2023-05-09T03:57:53.367Z,9.80
2023-05-09T04:00:20.269Z,9.30
2023-05-09T04:02:56.243Z,9.32
2023-05-09T04:05:31.074Z,10.00
2023-05-09T04:07:58.050Z,9.68
2023-05-09T04:10:25.532Z,10.07
2023-05-09T04:12:53.108Z,9.30
2023-05-09T04:15:19.730Z,9.50
2023-05-09T04:17:46.371Z,9.60
2023-05-09T04:20:13.197Z,9.45
2023-05-09T04:22:41.890Z,10.27
2023-05-09T04:25:12.530Z,10.25
2023-05-09T04:27:39.378Z,9.57
2023-05-09T04:30:06.673Z,9.80
2023-05-09T04:32:33.906Z,9.93
2023-05-09T04:35:01.278Z,9.38
2023-05-09T04:37:32.820Z,9.27
2023-05-09T04:40:01.457Z,9.32
2023-05-09T04:42:37.741Z,10.23
2023-05-09T04:45:05.669Z,9.80
2023-05-09T04:47:32.375Z,9.48
2023-05-09T04:49:59.104Z,8.88
2023-05-09T04:52:26.336Z,9.60
2023-05-09T04:54:52.987Z,9.35
2023-05-09T04:57:22.057Z,9.45
2023-05-09T04:59:54.411Z,9.05
2023-05-09T05:02:22.446Z,9.48
2023-05-09T05:04:56.127Z,9.07
2023-05-09T05:07:27.496Z,9.18
2023-05-09T05:09:53.950Z,9.10
2023-05-09T05:12:23.704Z,9.63
2023-05-09T05:14:50.502Z,9.40
2023-05-09T05:17:20.785Z,9.45
2023-05-09T05:19:47.971Z,9.88
2023-05-09T05:22:15.768Z,9.60
2023-05-09T05:24:45.355Z,9.95
2023-05-09T05:27:16.242Z,9.10
2023-05-09T05:29:44.368Z,9.70
2023-05-09T05:32:11.090Z,9.80
2023-05-09T05:34:39.397Z,9.10
2023-05-09T05:37:06.264Z,9.13
2023-05-09T05:39:32.957Z,9.80
2023-05-09T05:41:59.561Z,9.18
2023-05-09T05:44:26.490Z,8.90
2023-05-09T05:46:53.205Z,9.40
2023-05-09T05:49:20.989Z,9.15
2023-05-09T05:51:47.575Z,9.50
2023-05-09T05:54:14.348Z,9.10
2023-05-09T05:56:41.641Z,9.77
2023-05-09T05:59:11.270Z,9.63
2023-05-09T06:01:39.218Z,9.45
2023-05-09T06:04:08.365Z,9.65
2023-05-09T06:06:34.970Z,9.38
2023-05-09T06:09:01.464Z,8.65
2023-05-09T06:11:28.642Z,8.68
2023-05-09T06:13:55.601Z,9.82
2023-05-09T06:16:23.061Z,8.98
2023-05-09T06:18:50.265Z,8.95
2023-05-09T06:21:16.820Z,9.45
2023-05-09T06:24:01.473Z,9.48
2023-05-09T06:26:30.117Z,9.00
2023-05-09T06:28:56.813Z,8.70
2023-05-09T06:31:25.414Z,9.48
2023-05-09T06:33:52.356Z,9.57
2023-05-09T06:36:18.998Z,9.95
2023-05-09T06:38:45.565Z,8.90
2023-05-09T06:41:12.302Z,8.93
2023-05-09T06:43:38.796Z,9.48
2023-05-09T06:46:05.502Z,9.18
2023-05-09T06:48:32.075Z,8.38
2023-05-09T06:50:58.664Z,8.88
2023-05-09T06:53:25.406Z,9.48
2023-05-09T06:55:51.928Z,9.80
2023-05-09T06:58:18.457Z,10.05
2023-05-09T07:00:44.975Z,8.75
2023-05-09T07:03:11.743Z,9.27
2023-05-09T07:05:38.496Z,9.88
2023-05-09T07:08:05.225Z,9.88
2023-05-09T07:10:32.042Z,9.23
2023-05-09T07:12:58.849Z,9.90
2023-05-09T07:15:37.178Z,10.02
2023-05-09T07:18:07.038Z,9.38
2023-05-09T07:20:33.574Z,9.43
2023-05-09T07:23:00.238Z,9.38
2023-05-09T07:25:27.168Z,9.48
2023-05-09T07:27:53.837Z,9.05
2023-05-09T07:30:20.398Z,9.63
2023-05-09T07:32:47.185Z,9.50
2023-05-09T07:35:13.872Z,8.38
2023-05-09T07:37:40.766Z,8.82
2023-05-09T07:40:07.633Z,8.10
2023-05-09T07:42:34.278Z,8.73
2023-05-09T07:45:00.987Z,8.20
2023-05-09T07:47:28.043Z,8.05
2023-05-09T07:49:54.640Z,8.15
2023-05-09T07:52:22.623Z,7.82
2023-05-09T07:54:49.397Z,7.32
2023-05-09T07:57:16.451Z,7.00
2023-05-09T07:59:42.988Z,7.00
2023-05-09T08:02:09.821Z,7.18
2023-05-09T08:04:38.325Z,6.93
2023-05-09T08:07:05.238Z,6.07
2023-05-09T08:09:31.980Z,6.75
2023-05-09T08:11:58.629Z,6.95
2023-05-09T08:14:25.357Z,6.43
2023-05-09T08:16:52.063Z,6.63
2023-05-09T08:19:18.539Z,6.65
2023-05-09T08:21:45.163Z,6.50
2023-05-09T08:24:11.810Z,6.18
2023-05-09T08:26:38.384Z,6.07
2023-05-09T08:29:04.886Z,5.82
2023-05-09T08:31:31.655Z,6.25
2023-05-09T08:33:58.225Z,5.20
2023-05-09T08:36:25.002Z,5.57
2023-05-09T08:38:51.835Z,6.63
2023-05-09T08:41:19.262Z,5.97
2023-05-09T08:43:46.244Z,5.50
2023-05-09T08:46:13.678Z,5.07
2023-05-09T08:48:40.725Z,4.85
2023-05-09T08:51:07.461Z,5.63
2023-05-09T08:53:34.521Z,5.28
2023-05-09T08:56:03.137Z,4.93
2023-05-09T08:58:30.624Z,5.45
2023-05-09T09:00:57.893Z,4.70
2023-05-09T09:03:26.275Z,4.85
2023-05-09T09:05:54.460Z,5.00
2023-05-09T09:08:21.419Z,5.20
2023-05-09T09:10:48.370Z,4.70
2023-05-09T09:13:15.602Z,4.72
2023-05-09T09:15:44.139Z,4.65
2023-05-09T09:18:16.814Z,5.15
2023-05-09T09:20:55.650Z,4.53
2023-05-09T09:23:24.552Z,4.20
2023-05-09T09:25:59.621Z,4.53
2023-05-09T09:28:26.697Z,4.78
2023-05-09T09:30:53.238Z,5.30
2023-05-09T09:33:21.453Z,4.75
2023-05-09T09:35:51.600Z,4.40
2023-05-09T09:38:19.470Z,4.20
2023-05-09T09:40:52.187Z,3.80
2023-05-09T09:43:18.800Z,3.95
2023-05-09T09:45:48.750Z,4.05
2023-05-09T09:48:15.505Z,3.90
2023-05-09T09:50:42.072Z,4.50
2023-05-09T09:53:08.824Z,3.50
2023-05-09T09:55:35.782Z,3.47
2023-05-09T09:58:02.371Z,3.90
2023-05-09T10:00:30.178Z,3.67
2023-05-09T10:02:58.083Z,3.05
2023-05-09T10:05:28.884Z,4.03
2023-05-09T10:08:02.652Z,2.92
2023-05-09T10:10:30.641Z,3.20
2023-05-09T10:13:00.812Z,3.38
2023-05-09T10:15:30.091Z,3.00
2023-05-09T10:18:01.257Z,3.78
2023-05-09T10:20:28.264Z,3.33
2023-05-09T10:22:57.178Z,3.15
2023-05-09T10:25:47.045Z,3.05
2023-05-09T10:28:15.569Z,2.53
2023-05-09T10:30:57.931Z,2.78
2023-05-09T10:33:28.125Z,2.75
2023-05-09T10:35:56.169Z,2.80
2023-05-09T10:38:24.615Z,2.63
2023-05-09T10:40:51.492Z,2.70
2023-05-09T10:43:17.975Z,2.75
2023-05-09T10:45:44.725Z,2.60
2023-05-09T10:48:11.432Z,2.65
2023-05-09T10:50:40.229Z,2.58
2023-05-09T10:53:07.794Z,1.77
2023-05-09T10:55:37.682Z,2.00
2023-05-09T10:58:23.038Z,2.03
2023-05-09T11:00:50.962Z,2.20
2023-05-09T11:03:20.346Z,2.60
2023-05-09T11:05:48.143Z,2.60
2023-05-09T11:08:17.561Z,2.67
2023-05-09T11:10:44.399Z,2.45
2023-05-09T11:13:10.942Z,2.40
2023-05-09T11:15:50.143Z,2.50
2023-05-09T11:18:17.168Z,2.45
2023-05-09T11:20:45.866Z,2.63
2023-05-09T11:23:17.389Z,2.38
2023-05-09T11:25:45.957Z,2.47
2023-05-09T11:28:25.671Z,2.20
2023-05-09T11:30:53.155Z,2.03
2023-05-09T11:33:24.446Z,1.80
2023-05-09T11:36:11.851Z,1.88
2023-05-09T11:38:42.836Z,1.85
2023-05-09T11:41:09.414Z,1.75
2023-05-09T11:43:39.467Z,2.22
2023-05-09T11:46:06.236Z,2.40
2023-05-09T11:48:42.467Z,2.50
2023-05-09T11:51:16.092Z,1.83
2023-05-09T11:53:53.186Z,1.90
2023-05-09T11:56:20.551Z,2.45
2023-05-09T11:58:49.729Z,2.55
2023-05-09T12:01:17.005Z,2.40
2023-05-09T12:03:44.405Z,2.90
2023-05-09T12:06:14.989Z,3.90
2023-05-09T12:08:41.630Z,3.42
2023-05-09T12:11:08.976Z,5.93
2023-05-09T12:13:35.551Z,3.22
2023-05-09T12:16:02.316Z,2.50
2023-05-09T12:18:28.984Z,2.40
2023-05-09T12:20:55.473Z,2.47
2023-05-09T12:23:23.356Z,2.80
2023-05-09T12:25:53.153Z,2.25
2023-05-09T12:28:20.997Z,2.60
2023-05-09T12:30:47.576Z,2.53
2023-05-09T12:33:14.378Z,2.40
2023-05-09T12:35:45.110Z,2.80
2023-05-09T12:38:14.553Z,3.40
2023-05-09T12:40:41.300Z,3.30
2023-05-09T12:43:07.937Z,3.20
2023-05-09T12:45:34.414Z,3.60
2023-05-09T12:48:02.534Z,3.17
2023-05-09T12:50:34.995Z,2.75
2023-05-09T12:53:03.189Z,3.00
2023-05-09T12:55:30.418Z,3.60
2023-05-09T12:58:00.711Z,3.35
2023-05-09T13:00:27.755Z,3.40
2023-05-09T13:02:54.424Z,3.30
2023-05-09T13:05:22.165Z,3.63
2023-05-09T13:07:50.070Z,3.58
2023-05-09T13:10:18.507Z,3.75
2023-05-09T13:12:45.338Z,4.13
2023-05-09T13:15:12.359Z,4.22
2023-05-09T13:17:39.007Z,4.03
2023-05-09T13:20:06.007Z,4.70
2023-05-09T13:22:32.800Z,4.05
2023-05-09T13:24:59.572Z,3.17
2023-05-09T13:27:27.908Z,3.60
2023-05-09T13:29:54.500Z,3.33
2023-05-09T13:32:21.096Z,3.47
2023-05-09T13:34:47.873Z,3.72
2023-05-09T13:37:14.324Z,3.30
2023-05-09T13:39:41.011Z,3.30
2023-05-09T13:42:07.650Z,3.05
2023-05-09T13:44:34.262Z,3.42
2023-05-09T13:47:00.930Z,3.80
2023-05-09T13:49:30.581Z,3.45
2023-05-09T13:51:57.379Z,3.50
2023-05-09T13:54:23.896Z,3.55
2023-05-09T13:56:51.315Z,4.55
2023-05-09T13:59:17.918Z,3.83
2023-05-09T14:01:44.537Z,3.90
2023-05-09T14:04:11.321Z,3.92
2023-05-09T14:06:38.105Z,4.05
2023-05-09T14:09:04.724Z,4.22
2023-05-09T14:11:31.316Z,3.95
2023-05-09T14:13:58.117Z,4.00
2023-05-09T14:16:24.664Z,3.83
2023-05-09T14:18:51.382Z,3.70
2023-05-09T14:21:17.957Z,3.83
2023-05-09T14:23:44.605Z,3.80
2023-05-09T14:26:11.264Z,4.07
2023-05-09T14:28:38.243Z,4.20
2023-05-09T14:31:04.763Z,4.25
2023-05-09T14:33:32.110Z,4.20
2023-05-09T14:35:58.712Z,4.40
2023-05-09T14:38:25.301Z,4.05
2023-05-09T14:40:52.076Z,5.15
2023-05-09T14:43:18.829Z,4.47
2023-05-09T14:45:45.324Z,4.55
2023-05-09T14:48:14.435Z,5.25
2023-05-09T14:50:42.527Z,4.60
2023-05-09T14:53:09.256Z,4.82
2023-05-09T14:55:36.444Z,5.78
2023-05-09T14:58:03.257Z,4.68
2023-05-09T15:00:30.162Z,4.88
2023-05-09T15:02:57.067Z,4.55
2023-05-09T15:05:23.788Z,4.88
2023-05-09T15:07:50.513Z,4.78
2023-05-09T15:10:17.392Z,4.63
2023-05-09T15:12:44.518Z,5.35
2023-05-09T15:15:15.375Z,6.38
2023-05-09T15:17:42.624Z,5.82
2023-05-09T15:20:09.447Z,5.30
2023-05-09T15:22:36.130Z,4.90
2023-05-09T15:25:05.418Z,5.32
2023-05-09T15:27:32.781Z,4.97
2023-05-09T15:29:59.267Z,5.05
2023-05-09T15:32:26.071Z,4.88
2023-05-09T15:34:52.647Z,4.65
2023-05-09T15:37:19.238Z,5.10
2023-05-09T15:39:46.604Z,5.60
2023-05-09T15:42:13.416Z,5.18
2023-05-09T15:44:41.792Z,4.90
2023-05-09T15:47:11.334Z,4.20
2023-05-09T15:49:39.948Z,5.53
2023-05-09T15:52:07.431Z,6.30
2023-05-09T15:54:34.637Z,5.22
2023-05-09T15:57:01.349Z,4.55
2023-05-09T15:59:27.812Z,4.70
2023-05-09T16:01:55.018Z,4.22
2023-05-09T16:04:21.944Z,5.10
2023-05-09T16:06:49.061Z,4.50
2023-05-09T16:09:15.862Z,5.40
2023-05-09T16:11:42.981Z,5.63
2023-05-09T16:14:11.556Z,5.10
2023-05-09T16:16:39.497Z,5.78
2023-05-09T16:19:06.499Z,5.43
2023-05-09T16:21:33.212Z,5.60
2023-05-09T16:24:01.462Z,5.25
2023-05-09T16:26:28.142Z,5.55
2023-05-09T16:28:54.651Z,5.80
2023-05-09T16:31:21.482Z,5.88
2023-05-09T16:33:48.196Z,5.72
2023-05-09T16:36:14.817Z,5.65
2023-05-09T16:38:41.427Z,6.13
2023-05-09T16:41:07.964Z,5.93
2023-05-09T16:43:34.476Z,5.30
2023-05-09T16:46:01.399Z,6.22
2023-05-09T16:48:28.266Z,5.15
2023-05-09T16:50:54.816Z,5.60
2023-05-09T16:53:22.949Z,4.93
2023-05-09T16:55:50.144Z,5.95
2023-05-09T16:58:16.960Z,4.82
2023-05-09T17:00:43.712Z,4.90
2023-05-09T17:03:10.352Z,4.95
2023-05-09T17:05:36.904Z,5.20
2023-05-09T17:08:03.706Z,5.10
2023-05-09T17:10:30.414Z,4.50
2023-05-09T17:12:57.263Z,4.85
2023-05-09T17:15:24.017Z,5.35
2023-05-09T17:17:50.577Z,5.25
2023-05-09T17:20:17.571Z,6.38
2023-05-09T17:22:44.367Z,5.82
2023-05-09T17:25:11.073Z,5.45
2023-05-09T17:27:37.691Z,5.15
2023-05-09T17:30:04.909Z,5.10
2023-05-09T17:32:31.526Z,5.45
2023-05-09T17:34:58.469Z,4.97
2023-05-09T17:37:25.180Z,7.28
2023-05-09T17:39:51.932Z,13.20
2023-05-09T17:42:19.743Z,6.35
2023-05-09T17:44:47.116Z,4.97
2023-05-09T17:47:14.358Z,4.95
2023-05-09T17:49:40.914Z,5.13
2023-05-09T17:52:07.744Z,6.03
2023-05-09T17:54:34.429Z,6.93
2023-05-09T17:57:01.823Z,5.70
2023-05-09T17:59:31.242Z,5.05
2023-05-09T18:01:58.006Z,4.60
2023-05-09T18:04:25.717Z,4.30
2023-05-09T18:06:52.318Z,5.05
2023-05-09T18:09:19.109Z,4.20
2023-05-09T18:11:45.637Z,4.55
2023-05-09T18:14:13.163Z,4.53
2023-05-09T18:16:39.731Z,4.30
2023-05-09T18:19:06.286Z,5.30
2023-05-09T18:21:32.878Z,5.65
2023-05-09T18:23:59.978Z,5.18
2023-05-09T18:26:28.724Z,4.38
2023-05-09T18:28:55.601Z,4.30
2023-05-09T18:31:22.488Z,3.85
2023-05-09T18:33:49.240Z,3.60
2023-05-09T18:36:15.690Z,4.00
2023-05-09T18:38:43.331Z,3.75
2023-05-09T18:41:10.908Z,3.65
2023-05-09T18:43:38.987Z,3.22
2023-05-09T18:46:05.775Z,2.83
2023-05-09T18:48:33.052Z,3.97
2023-05-09T18:50:59.549Z,2.92
2023-05-09T18:53:26.693Z,3.05
2023-05-09T18:55:53.262Z,3.00
2023-05-09T18:58:21.305Z,2.88
2023-05-09T19:00:47.825Z,3.13
2023-05-09T19:03:14.510Z,3.35
2023-05-09T19:05:40.966Z,3.40
2023-05-09T19:08:07.675Z,3.53
2023-05-09T19:10:35.105Z,3.40
2023-05-09T19:13:01.983Z,3.10
2023-05-09T19:15:30.024Z,3.00
2023-05-09T19:17:56.688Z,3.20
2023-05-09T19:20:23.375Z,3.20
2023-05-09T19:22:51.472Z,3.65
2023-05-09T19:25:18.853Z,3.78
2023-05-09T19:27:45.775Z,3.05
2023-05-09T19:30:15.989Z,3.20
2023-05-09T19:32:42.906Z,3.92
2023-05-09T19:35:09.835Z,3.75
2023-05-09T19:37:42.868Z,3.63
2023-05-09T19:40:18.950Z,4.10
2023-05-09T19:42:46.076Z,3.85
2023-05-09T19:45:12.745Z,3.67
2023-05-09T19:47:43.855Z,4.20
2023-05-09T19:50:10.954Z,3.85
2023-05-09T19:52:37.731Z,3.85
2023-05-09T19:55:05.904Z,4.47
2023-05-09T19:57:32.503Z,4.75
2023-05-09T19:59:59.048Z,4.30
2023-05-09T20:02:25.831Z,4.10
2023-05-09T20:04:54.266Z,4.30
2023-05-09T20:07:20.801Z,11.32
2023-05-09T20:09:51.574Z,11.18
2023-05-09T20:12:19.553Z,9.45
2023-05-09T20:14:46.311Z,5.60
2023-05-09T20:17:13.246Z,5.15
2023-05-09T20:19:39.845Z,4.90
2023-05-09T20:22:06.891Z,4.60
2023-05-09T20:24:33.956Z,4.80
2023-05-09T20:27:02.353Z,4.60
2023-05-09T20:29:29.154Z,4.50
2023-05-09T20:31:55.823Z,4.45
2023-05-09T20:34:28.834Z,4.50
2023-05-09T20:36:58.475Z,4.68
2023-05-09T20:39:27.033Z,4.30
2023-05-09T20:42:07.237Z,4.85
2023-05-09T20:44:33.943Z,4.22
2023-05-09T20:47:00.599Z,4.45
2023-05-09T20:49:27.501Z,4.28
2023-05-09T20:51:55.366Z,4.57
2023-05-09T20:54:24.144Z,4.50
2023-05-09T20:56:51.133Z,4.63
2023-05-09T20:59:18.106Z,4.75
2023-05-09T21:01:44.870Z,4.32
2023-05-09T21:04:11.425Z,3.60
2023-05-09T21:06:37.996Z,4.00
2023-05-09T21:09:09.060Z,4.40
2023-05-09T21:11:37.649Z,3.90
2023-05-09T21:14:04.139Z,4.85
2023-05-09T21:16:30.881Z,4.50
2023-05-09T21:18:59.512Z,5.15
2023-05-09T21:21:26.281Z,4.25
2023-05-09T21:23:52.782Z,4.18
2023-05-09T21:26:25.728Z,4.95
2023-05-09T21:29:08.415Z,5.15
2023-05-09T21:31:37.939Z,4.32
2023-05-09T21:34:10.294Z,4.68
2023-05-09T21:36:38.545Z,4.90
2023-05-09T21:39:08.985Z,4.65
2023-05-09T21:41:36.215Z,4.72
2023-05-09T21:44:10.690Z,5.35
2023-05-09T21:47:03.025Z,4.43
2023-05-09T21:49:29.890Z,5.65
2023-05-09T21:51:56.497Z,5.13
2023-05-09T21:54:34.486Z,4.90
2023-05-09T21:57:01.003Z,5.25
2023-05-09T21:59:28.717Z,5.32
2023-05-09T22:01:55.394Z,5.35
2023-05-09T22:04:22.053Z,6.65
2023-05-09T22:06:48.628Z,6.38
2023-05-09T22:09:15.377Z,5.78
2023-05-09T22:11:42.177Z,6.05
2023-05-09T22:14:10.173Z,6.43
2023-05-09T22:16:37.636Z,6.15
2023-05-09T22:19:04.217Z,5.70
2023-05-09T22:21:31.406Z,6.25
2023-05-09T22:23:58.047Z,5.50
2023-05-09T22:26:24.659Z,5.72
2023-05-09T22:28:51.145Z,5.57
2023-05-09T22:31:17.830Z,4.82
2023-05-09T22:33:44.267Z,5.07
2023-05-09T22:36:10.936Z,5.10
2023-05-09T22:38:37.614Z,6.32
2023-05-09T22:41:04.277Z,5.25
2023-05-09T22:43:38.764Z,4.78
2023-05-09T22:46:06.638Z,4.35
2023-05-09T22:48:38.584Z,5.30
2023-05-09T22:51:06.604Z,4.65
2023-05-09T22:53:33.536Z,4.70
2023-05-09T22:56:00.165Z,4.60
2023-05-09T22:58:29.001Z,4.03
2023-05-09T23:00:58.186Z,4.38
2023-05-09T23:03:27.202Z,4.45
2023-05-09T23:05:54.026Z,4.57
2023-05-09T23:08:20.798Z,4.40
2023-05-09T23:10:47.567Z,3.85
2023-05-09T23:13:14.116Z,4.15
2023-05-09T23:15:40.906Z,4.85
2023-05-09T23:18:07.478Z,4.63
2023-05-09T23:20:35.629Z,4.97
2023-05-09T23:23:03.782Z,3.97
2023-05-09T23:25:30.311Z,4.95
2023-05-09T23:27:56.800Z,5.32
2023-05-09T23:30:23.401Z,4.53
2023-05-09T23:32:49.929Z,4.50
2023-05-09T23:35:17.203Z,4.35
2023-05-09T23:37:43.688Z,5.40
2023-05-09T23:40:13.008Z,4.95
2023-05-09T23:42:39.655Z,4.53
2023-05-09T23:45:06.635Z,5.22
2023-05-09T23:47:35.555Z,5.05
2023-05-09T23:50:02.225Z,5.70
2023-05-09T23:52:28.793Z,4.93
2023-05-09T23:54:55.505Z,5.72
2023-05-09T23:57:22.152Z,7.63
2023-05-09T23:59:48.731Z,7.65
